Time;durP1;ratioP1;P1;durP2;ratioP2;P2;SDS_P1;SDS_P2;PMS_P1;PMS_P2;Temp;Humidity;BMP_temperature;BMP_pressure;BME280_temperature;BME280_humidity;BME280_pressure;Samples;Min_cycle;Max_cycle;Signal;HPM_P1;HPM_P2
2023/01/21 00:01:14;;;;;;;14.05;8.88;;;;;;;0.93;99.07;100353.63;5076169;28;20416;-72
2023/01/21 00:03:43;;;;;;;14.10;8.20;;;;;;;0.95;99.13;100353.41;5072446;28;20063;-72
2023/01/21 00:06:13;;;;;;;14.48;7.85;;;;;;;0.97;99.31;100348.63;5071712;28;20040;-72
2023/01/21 00:08:42;;;;;;;12.93;7.88;;;;;;;0.98;98.91;100341.38;5071736;28;20041;-72
2023/01/21 00:11:16;;;;;;;13.70;8.23;;;;;;;0.99;98.46;100349.25;5071738;28;20487;-72
2023/01/21 00:13:44;;;;;;;14.35;7.85;;;;;;;0.94;98.26;100339.09;5071641;28;20049;-72
2023/01/21 00:16:12;;;;;;;15.68;8.18;;;;;;;0.88;98.05;100333.78;5071651;28;20047;-72
2023/01/21 00:18:40;;;;;;;13.15;8.43;;;;;;;0.88;98.63;100340.00;5085907;28;20490;-72
2023/01/21 00:21:09;;;;;;;14.68;9.45;;;;;;;0.84;98.53;100324.50;5090195;28;20044;-72
2023/01/21 00:23:36;;;;;;;16.75;9.00;;;;;;;0.90;97.99;100327.13;5077830;28;20032;-72
2023/01/21 00:26:06;;;;;;;19.50;10.45;;;;;;;0.88;98.31;100325.72;5071715;28;20375;-72
2023/01/21 00:28:35;;;;;;;15.65;8.30;;;;;;;0.86;98.55;100317.84;5071479;28;20541;-72
2023/01/21 00:31:05;;;;;;;19.10;8.48;;;;;;;0.72;99.22;100321.69;5071589;28;20036;-72
2023/01/21 00:33:34;;;;;;;15.57;9.52;;;;;;;0.71;99.69;100318.19;5071330;28;20041;-72
2023/01/21 00:36:12;;;;;;;17.27;9.13;;;;;;;0.71;99.70;100314.66;5071618;28;20056;-72
2023/01/21 00:38:39;;;;;;;14.93;8.98;;;;;;;0.64;99.47;100317.41;5071353;28;20045;-71
2023/01/21 00:41:10;;;;;;;20.67;9.77;;;;;;;0.63;100.00;100311.19;5071527;28;20395;-72
2023/01/21 00:43:39;;;;;;;14.10;8.77;;;;;;;0.69;98.91;100296.03;5071866;28;20044;-72
2023/01/21 00:46:08;;;;;;;15.07;8.38;;;;;;;0.69;97.80;100304.13;5075190;28;20047;-72
2023/01/21 00:48:36;;;;;;;16.15;8.10;;;;;;;0.73;97.96;100302.63;5075086;28;20052;-72
2023/01/21 00:51:04;;;;;;;17.33;8.85;;;;;;;0.68;97.72;100304.34;5073816;28;20043;-71
2023/01/21 00:53:34;;;;;;;15.80;8.07;;;;;;;0.63;96.62;100303.13;5074971;28;20040;-72
2023/01/21 00:56:07;;;;;;;16.65;8.27;;;;;;;0.60;96.61;100295.50;5075014;28;20059;-72
2023/01/21 00:58:36;;;;;;;16.90;8.30;;;;;;;0.65;95.95;100292.94;5076011;28;20036;-72
2023/01/21 01:01:06;;;;;;;13.40;7.32;;;;;;;0.61;94.28;100304.38;5074226;28;20045;-72
2023/01/21 01:03:35;;;;;;;11.55;7.03;;;;;;;0.66;94.15;100304.56;5074793;28;20052;-72
2023/01/21 01:06:13;;;;;;;11.68;7.13;;;;;;;0.65;93.01;100297.53;5074684;28;20486;-71
2023/01/21 01:08:42;;;;;;;10.60;6.88;;;;;;;0.63;92.79;100294.22;5074675;28;20044;-72
2023/01/21 01:11:11;;;;;;;12.80;6.47;;;;;;;0.64;93.64;100295.88;5088314;28;20102;-71
2023/01/21 01:13:39;;;;;;;13.25;7.47;;;;;;;0.57;93.54;100295.09;5093909;28;20052;-72
2023/01/21 01:16:09;;;;;;;14.18;6.68;;;;;;;0.63;93.45;100294.22;5094875;28;20048;-71
2023/01/21 01:18:37;;;;;;;9.40;6.88;;;;;;;0.66;93.63;100291.09;5094297;28;20486;-70
2023/01/21 01:21:05;;;;;;;10.85;6.32;;;;;;;0.62;91.20;100289.88;5094156;28;20040;-71
2023/01/21 01:23:33;;;;;;;8.68;6.03;;;;;;;0.65;90.22;100286.75;5093951;28;20040;-71
2023/01/21 01:26:05;;;;;;;12.20;6.65;;;;;;;0.76;90.14;100287.88;5093423;28;20036;-71
2023/01/21 01:28:34;;;;;;;10.18;6.35;;;;;;;0.82;89.01;100287.00;5094501;28;20055;-71
2023/01/21 01:31:07;;;;;;;9.77;6.53;;;;;;;0.81;89.20;100285.34;5094572;28;20040;-71
2023/01/21 01:33:35;;;;;;;10.98;6.60;;;;;;;0.67;89.29;100271.19;5091515;28;20409;-70
2023/01/21 01:36:09;;;;;;;11.20;6.75;;;;;;;0.69;90.14;100277.19;5074199;28;20060;-71
2023/01/21 01:38:37;;;;;;;10.63;6.07;;;;;;;0.67;90.44;100281.94;5073912;28;20044;-70
2023/01/21 01:41:05;;;;;;;10.55;6.28;;;;;;;0.76;89.74;100269.88;5074158;28;20047;-70
2023/01/21 01:44:00;;;;;;;8.35;5.25;;;;;;;0.80;86.80;100275.63;5072640;28;20060;-71
2023/01/21 01:46:35;;;;;;;11.98;6.90;;;;;;;0.72;87.13;100265.97;5073965;28;20044;-71
2023/01/21 01:49:15;;;;;;;10.65;5.72;;;;;;;0.72;85.15;100263.25;5074058;28;20074;-71
2023/01/21 01:51:51;;;;;;;11.10;6.15;;;;;;;0.72;83.77;100257.03;5077063;28;20044;-71
2023/01/21 01:54:28;;;;;;;7.55;5.20;;;;;;;0.62;82.55;100260.25;5093572;28;20047;-71
2023/01/21 01:56:59;;;;;;;7.18;4.60;;;;;;;0.74;81.12;100258.47;5093086;28;20059;-71
2023/01/21 01:59:29;;;;;;;8.85;4.80;;;;;;;0.77;80.02;100252.66;5091676;28;20047;-71
2023/01/21 02:02:05;;;;;;;11.45;5.03;;;;;;;0.80;80.08;100241.41;5088880;28;20040;-71
2023/01/21 02:04:42;;;;;;;11.75;5.45;;;;;;;0.77;80.72;100231.09;5073793;28;20399;-71
2023/01/21 02:07:10;;;;;;;7.25;4.15;;;;;;;0.81;80.29;100231.47;5074615;28;20043;-71
2023/01/21 02:09:38;;;;;;;6.43;3.97;;;;;;;0.84;77.68;100228.34;5073467;28;20052;-71
2023/01/21 02:12:06;;;;;;;5.55;3.67;;;;;;;0.97;75.55;100224.66;5089358;28;20048;-71
2023/01/21 02:14:41;;;;;;;5.75;2.97;;;;;;;1.05;74.56;100223.53;5093444;28;20040;-71
2023/01/21 02:17:29;;;;;;;8.82;3.97;;;;;;;1.10;76.20;100217.47;5092630;28;20509;-71
2023/01/21 02:20:18;;;;;;;5.57;3.13;;;;;;;1.09;72.66;100207.75;5093645;28;20394;-71
2023/01/21 02:22:58;;;;;;;5.10;3.00;;;;;;;1.24;68.41;100210.03;5092036;28;20398;-71
2023/01/21 02:26:06;;;;;;;3.63;2.78;;;;;;;1.25;66.18;100209.81;5092929;28;20048;-71
2023/01/21 02:28:40;;;;;;;7.35;2.45;;;;;;;1.28;66.58;100195.06;5093224;28;20064;-71
2023/01/21 02:31:14;;;;;;;3.70;2.38;;;;;;;1.39;62.60;100205.09;5093506;28;20043;-71
2023/01/21 02:34:06;;;;;;;4.20;2.35;;;;;;;1.54;59.88;100191.19;5093470;28;20044;-71
2023/01/21 02:36:52;;;;;;;1.77;1.63;;;;;;;1.65;59.44;100186.06;5091342;28;20044;-71
2023/01/21 02:39:34;;;;;;;1.88;1.75;;;;;;;1.72;58.32;100187.59;5093274;28;20052;-71
2023/01/21 02:42:09;;;;;;;2.63;1.80;;;;;;;1.68;59.71;100175.63;5086739;28;20051;-71
2023/01/21 02:44:55;;;;;;;2.17;1.33;;;;;;;1.71;56.84;100166.28;5072980;28;20041;-71
2023/01/21 02:47:52;;;;;;;1.00;0.90;;;;;;;1.82;57.32;100170.03;5073960;28;20052;-71
2023/01/21 02:50:29;;;;;;;1.20;0.90;;;;;;;1.84;56.98;100159.81;5073244;28;20044;-71
2023/01/21 02:52:58;;;;;;;1.38;0.90;;;;;;;1.88;54.20;100166.41;5092726;28;20504;-71
2023/01/21 02:55:34;;;;;;;1.95;1.25;;;;;;;1.94;54.79;100154.69;5092952;28;20052;-71
2023/01/21 02:58:06;;;;;;;0.70;0.70;;;;;;;1.94;53.01;100143.88;5085209;28;20048;-71
2023/01/21 03:00:56;;;;;;;0.88;0.88;;;;;;;2.10;58.68;100155.88;5071149;28;20044;-71
2023/01/21 03:03:46;;;;;;;0.80;0.80;;;;;;;2.12;54.00;100147.53;5088441;28;20056;-70
2023/01/21 03:06:45;;;;;;;1.05;0.95;;;;;;;2.04;55.46;100142.50;5092592;28;20067;-71
2023/01/21 03:09:25;;;;;;;1.08;1.00;;;;;;;2.00;53.41;100139.41;5091430;28;20051;-71
2023/01/21 03:12:20;;;;;;;0.70;0.65;;;;;;;1.88;54.62;100142.13;5091006;28;20501;-71
2023/01/21 03:18:09;;;;;;;3.13;0.95;;;;;;;1.79;53.71;100125.44;5072327;28;20045;-71
2023/01/21 03:20:53;;;;;;;0.60;0.60;;;;;;;1.78;54.18;100128.38;5072254;28;20044;-71
2023/01/21 03:23:28;;;;;;;1.33;0.57;;;;;;;1.79;55.30;100124.63;5081676;28;20068;-71
2023/01/21 03:25:59;;;;;;;4.45;0.90;;;;;;;1.78;53.85;100121.13;5092684;28;20429;-70
2023/01/21 03:28:32;;;;;;;0.45;0.45;;;;;;;1.72;53.74;100119.34;5092173;28;20047;-71
2023/01/21 03:31:12;;;;;;;0.80;0.60;;;;;;;1.66;54.28;100123.78;5088977;28;20048;-71
2023/01/21 03:33:44;;;;;;;0.77;0.73;;;;;;;1.66;53.88;100112.19;5072334;28;20044;-71
2023/01/21 03:36:37;;;;;;;0.70;0.57;;;;;;;1.71;53.39;100121.22;5070899;28;20048;-71
2023/01/21 03:39:14;;;;;;;1.58;0.80;;;;;;;1.80;53.02;100112.78;5072061;28;20041;-71
2023/01/21 03:41:42;;;;;;;0.90;0.63;;;;;;;1.71;53.06;100121.22;5072159;28;20048;-71
2023/01/21 03:44:10;;;;;;;1.75;0.68;;;;;;;1.66;54.33;100117.56;5072151;28;20041;-71
2023/01/21 03:47:10;;;;;;;3.65;0.93;;;;;;;1.57;53.91;100107.09;5073202;28;20047;-72
2023/01/21 03:49:42;;;;;;;1.85;0.80;;;;;;;1.65;54.56;100102.44;5071991;28;20475;-71
2023/01/21 03:52:12;;;;;;;1.02;0.50;;;;;;;1.65;51.76;100105.16;5072120;28;20045;-72
2023/01/21 03:54:40;;;;;;;0.73;0.68;;;;;;;1.65;55.04;100088.97;5072782;28;20041;-71
2023/01/21 03:57:08;;;;;;;0.57;0.40;;;;;;;1.58;53.95;100097.97;5072004;28;20049;-71
2023/01/21 03:59:36;;;;;;;1.80;0.80;;;;;;;1.67;52.69;100093.03;5071570;28;20040;-71
2023/01/21 04:02:03;;;;;;;1.15;0.70;;;;;;;1.61;55.60;100086.72;5070565;28;20060;-71
2023/01/21 04:04:32;;;;;;;0.50;0.50;;;;;;;1.64;53.86;100093.53;5076763;28;20501;-71
2023/01/21 04:06:59;;;;;;;0.95;0.77;;;;;;;1.60;56.35;100090.47;5071877;28;20041;-71
2023/01/21 04:09:27;;;;;;;0.77;0.63;;;;;;;1.53;53.03;100094.31;5072780;28;20056;-71
2023/01/21 04:11:56;;;;;;;0.90;0.80;;;;;;;1.56;53.01;100099.28;5070427;28;20045;-71
2023/01/21 04:14:24;;;;;;;1.38;0.60;;;;;;;1.56;55.02;100096.56;5071845;28;20052;-71
2023/01/21 04:16:52;;;;;;;4.20;1.58;;;;;;;1.59;52.16;100096.09;5071887;28;20053;-71
2023/01/21 04:19:20;;;;;;;2.05;1.17;;;;;;;1.60;54.45;100093.16;5073279;28;20040;-71
2023/01/21 04:21:48;;;;;;;2.95;1.00;;;;;;;1.64;52.74;100101.63;5075557;28;20056;-71
2023/01/21 04:24:16;;;;;;;2.25;1.15;;;;;;;1.67;52.45;100097.63;5074213;28;20402;-71
2023/01/21 04:26:43;;;;;;;1.13;0.80;;;;;;;1.70;50.59;100097.16;5074481;28;20051;-71
2023/01/21 04:29:11;;;;;;;1.42;0.82;;;;;;;1.72;53.44;100103.16;5075548;28;20052;-71
2023/01/21 04:31:39;;;;;;;1.90;1.25;;;;;;;1.78;50.69;100098.69;5074275;28;20033;-71
2023/01/21 04:34:07;;;;;;;1.63;1.13;;;;;;;1.93;52.94;100103.63;5075504;28;20044;-71
2023/01/21 04:36:35;;;;;;;3.10;0.85;;;;;;;1.95;49.60;100101.53;5075538;28;20048;-71
2023/01/21 04:39:03;;;;;;;1.13;0.98;;;;;;;1.92;52.63;100099.28;5087051;28;20056;-71
2023/01/21 04:41:31;;;;;;;1.38;1.05;;;;;;;1.90;50.91;100096.81;5094828;28;20071;-71
2023/01/21 04:43:58;;;;;;;1.38;0.50;;;;;;;1.93;50.47;100101.78;5095366;28;20043;-71
2023/01/21 04:46:26;;;;;;;1.00;0.65;;;;;;;1.94;51.83;100100.72;5086867;28;20033;-71
2023/01/21 04:48:54;;;;;;;0.68;0.68;;;;;;;1.96;53.90;100101.28;5075099;28;20517;-70
2023/01/21 04:51:22;;;;;;;1.70;0.65;;;;;;;1.95;51.05;100102.34;5075174;28;20041;-70
2023/01/21 04:53:50;;;;;;;1.20;0.90;;;;;;;1.95;52.29;100104.25;5073907;28;20045;-71
2023/01/21 04:56:17;;;;;;;3.53;1.10;;;;;;;1.93;50.41;100106.34;5095250;28;20047;-71
2023/01/21 04:58:45;;;;;;;1.20;0.80;;;;;;;1.90;52.07;100110.31;5094813;28;20048;-71
2023/01/21 05:01:13;;;;;;;1.45;0.70;;;;;;;1.88;53.82;100104.34;5094772;28;20059;-71
2023/01/21 05:03:41;;;;;;;1.30;0.85;;;;;;;1.82;53.99;100106.09;5093500;28;20052;-70
2023/01/21 05:06:09;;;;;;;1.33;0.90;;;;;;;1.85;54.25;100119.13;5094767;28;20398;-71
2023/01/21 05:08:37;;;;;;;1.40;0.85;;;;;;;1.80;54.37;100113.59;5077650;28;20047;-71
2023/01/21 05:11:08;;;;;;;11.52;1.27;;;;;;;1.83;53.68;100118.53;5074683;28;20055;-71
2023/01/21 05:13:36;;;;;;;3.67;0.82;;;;;;;1.84;54.96;100117.47;5074665;28;20048;-70
2023/01/21 05:16:07;;;;;;;1.38;0.95;;;;;;;1.83;55.88;100112.31;5074655;28;20041;-71
2023/01/21 05:18:39;;;;;;;1.42;0.93;;;;;;;1.84;54.29;100109.38;5074573;28;20044;-71
2023/01/21 05:21:07;;;;;;;3.30;1.10;;;;;;;1.86;54.03;100126.16;5075730;28;20051;-71
2023/01/21 05:23:35;;;;;;;4.30;0.90;;;;;;;1.93;52.28;100112.56;5074622;28;20055;-71
2023/01/21 05:26:03;;;;;;;2.33;1.02;;;;;;;1.78;53.98;100121.13;5074552;28;20048;-71
2023/01/21 05:28:31;;;;;;;1.52;1.15;;;;;;;1.85;55.95;100120.97;5074344;28;20041;-70
2023/01/21 05:31:00;;;;;;;3.00;0.70;;;;;;;1.78;54.78;100120.28;5074434;28;20048;-71
2023/01/21 05:33:37;;;;;;;3.53;1.60;;;;;;;1.73;56.32;100118.28;5074323;28;20048;-70
2023/01/21 05:36:05;;;;;;;1.55;1.15;;;;;;;1.86;53.90;100119.94;5074371;28;20037;-71
2023/01/21 05:38:33;;;;;;;2.25;0.68;;;;;;;1.97;52.54;100123.72;5074191;28;20044;-71
2023/01/21 05:41:02;;;;;;;1.52;0.80;;;;;;;1.93;52.75;100117.97;5074222;28;20059;-70
2023/01/21 05:43:30;;;;;;;1.67;0.93;;;;;;;1.97;55.34;100118.31;5074167;28;20493;-71
2023/01/21 05:45:58;;;;;;;0.80;0.80;;;;;;;1.93;54.04;100125.22;5073965;28;20600;-71
2023/01/21 05:48:28;;;;;;;2.53;0.75;;;;;;;1.96;52.00;100119.38;5073885;28;20376;-71
2023/01/21 05:50:56;;;;;;;0.93;0.73;;;;;;;2.08;53.36;100125.59;5074965;28;20044;-73
2023/01/21 05:53:25;;;;;;;0.80;0.80;;;;;;;2.17;51.13;100133.34;5084535;28;20040;-73
2023/01/21 05:55:54;;;;;;;0.80;0.75;;;;;;;2.19;54.60;100132.03;5079011;28;20389;-74
2023/01/21 05:58:24;;;;;;;1.20;0.80;;;;;;;2.10;53.82;100126.16;5078585;28;20119;-73
2023/01/21 06:00:52;;;;;;;0.85;0.80;;;;;;;2.04;57.18;100119.00;5074635;28;20047;-74
2023/01/21 06:03:20;;;;;;;0.70;0.70;;;;;;;2.11;56.80;100129.72;5077265;28;20490;-74
2023/01/21 06:05:49;;;;;;;1.10;0.73;;;;;;;2.14;52.51;100130.06;5083395;28;20067;-73
2023/01/21 06:08:17;;;;;;;0.77;0.77;;;;;;;2.12;53.65;100137.56;5092711;28;20048;-73
2023/01/21 06:10:45;;;;;;;1.88;0.90;;;;;;;2.22;54.04;100134.28;5089859;28;20059;-73
2023/01/21 06:13:14;;;;;;;1.50;1.10;;;;;;;2.26;54.30;100142.72;5085467;28;20040;-74
2023/01/21 06:15:42;;;;;;;0.60;0.60;;;;;;;2.33;52.98;100140.72;5108573;28;20044;-73
2023/01/21 06:18:10;;;;;;;3.78;1.10;;;;;;;2.46;55.33;100139.66;5092964;28;20051;-73
2023/01/21 06:20:37;;;;;;;0.90;0.88;;;;;;;2.47;52.34;100148.56;5091450;28;20051;-74
2023/01/21 06:23:05;;;;;;;1.95;0.68;;;;;;;2.35;52.40;100146.69;5078270;28;20045;-74
2023/01/21 06:25:33;;;;;;;1.27;0.85;;;;;;;2.23;52.46;100149.44;5072949;28;20044;-74
2023/01/21 06:28:01;;;;;;;1.63;0.90;;;;;;;2.28;50.43;100154.09;5090804;28;20055;-73
2023/01/21 06:30:28;;;;;;;1.90;0.77;;;;;;;2.28;52.43;100152.25;5084737;28;20048;-74
2023/01/21 06:32:56;;;;;;;4.97;1.13;;;;;;;2.24;53.33;100156.47;5088388;28;20044;-74
2023/01/21 06:35:24;;;;;;;1.05;0.95;;;;;;;2.20;56.67;100155.28;5075521;28;20052;-74
2023/01/21 06:37:52;;;;;;;1.60;0.73;;;;;;;2.12;53.55;100153.78;5073180;28;20040;-74
2023/01/21 06:40:20;;;;;;;1.73;0.60;;;;;;;2.13;55.48;100168.06;5081111;28;20063;-74
2023/01/21 06:42:48;;;;;;;1.58;0.90;;;;;;;2.11;54.96;100162.09;5091849;28;20059;-74
2023/01/21 06:45:16;;;;;;;0.98;0.85;;;;;;;2.11;54.37;100164.78;5090997;28;20059;-74
2023/01/21 06:47:44;;;;;;;3.60;1.17;;;;;;;2.10;53.74;100161.25;5090103;28;20047;-73
2023/01/21 06:50:14;;;;;;;1.75;1.05;;;;;;;2.12;53.97;100169.97;5092695;28;20048;-73
2023/01/21 06:52:45;;;;;;;1.45;0.93;;;;;;;2.14;52.31;100175.13;5072809;28;20049;-73
2023/01/21 06:55:14;;;;;;;1.05;1.02;;;;;;;2.17;53.32;100177.34;5072408;28;20403;-73
2023/01/21 06:57:43;;;;;;;0.90;0.90;;;;;;;2.11;52.21;100178.28;5089608;28;20044;-73
2023/01/21 07:00:12;;;;;;;0.88;0.75;;;;;;;2.17;54.43;100173.81;5092311;28;20056;-73
2023/01/21 07:02:40;;;;;;;1.63;1.10;;;;;;;2.12;54.24;100186.16;5090146;28;20051;-73
2023/01/21 07:05:08;;;;;;;1.30;1.17;;;;;;;2.06;55.18;100184.41;5070434;28;20045;-73
2023/01/21 07:07:35;;;;;;;2.33;1.95;;;;;;;2.19;54.64;100193.34;5071301;28;20040;-73
2023/01/21 07:10:03;;;;;;;4.50;2.33;;;;;;;2.23;54.77;100186.38;5072362;28;20151;-73
2023/01/21 07:12:31;;;;;;;5.43;2.97;;;;;;;2.24;58.06;100193.44;5091238;28;20043;-73
2023/01/21 07:14:59;;;;;;;2.78;1.60;;;;;;;2.13;54.82;100201.31;5089408;28;20051;-74
2023/01/21 07:17:27;;;;;;;1.45;1.30;;;;;;;2.33;54.48;100189.34;5091802;28;20055;-74
2023/01/21 07:19:58;;;;;;;2.97;1.27;;;;;;;2.39;54.90;100199.19;5090502;28;20051;-73
2023/01/21 07:22:25;;;;;;;1.52;1.38;;;;;;;2.40;56.28;100200.84;5080450;28;20044;-73
2023/01/21 07:24:53;;;;;;;2.35;1.55;;;;;;;2.41;58.60;100204.38;5091385;28;20051;-74
2023/01/21 07:27:21;;;;;;;1.80;1.00;;;;;;;2.43;52.43;100218.47;5079131;28;20036;-74
2023/01/21 07:29:48;;;;;;;1.63;0.98;;;;;;;2.53;52.08;100213.28;5071244;28;20044;-73
2023/01/21 07:32:16;;;;;;;0.88;0.75;;;;;;;2.64;50.95;100213.53;5070914;28;20047;-73
2023/01/21 07:34:44;;;;;;;1.58;1.48;;;;;;;2.56;52.74;100209.31;5073337;28;20055;-76
2023/01/21 07:37:12;;;;;;;1.38;1.27;;;;;;;2.57;53.58;100207.41;5071272;28;20044;-76
2023/01/21 07:39:40;;;;;;;1.55;1.15;;;;;;;2.77;52.59;100217.84;5069412;28;20044;-76
2023/01/21 07:42:09;;;;;;;1.50;1.33;;;;;;;2.80;53.96;100215.50;5088041;28;20040;-75
2023/01/21 07:44:37;;;;;;;2.83;1.17;;;;;;;2.95;54.29;100208.78;5092089;28;20037;-76
2023/01/21 07:47:05;;;;;;;1.42;1.33;;;;;;;3.09;52.15;100226.38;5085028;28;20036;-76
2023/01/21 07:49:32;;;;;;;1.13;1.02;;;;;;;3.28;54.23;100223.50;5069628;28;20060;-77
2023/01/21 07:52:00;;;;;;;1.63;1.15;;;;;;;3.47;49.71;100209.81;5071113;28;20059;-77
2023/01/21 07:54:28;;;;;;;3.13;1.20;;;;;;;3.83;50.90;100229.44;5073330;28;20048;-78
2023/01/21 07:56:56;;;;;;;1.60;1.08;;;;;;;4.10;50.48;100228.78;5079360;28;20044;-78
2023/01/21 07:59:24;;;;;;;2.13;1.20;;;;;;;4.28;50.26;100230.44;5095193;28;20040;-78
2023/01/21 08:01:51;;;;;;;1.50;1.08;;;;;;;4.43;49.12;100223.63;5094120;28;20055;-78
2023/01/21 08:04:19;;;;;;;3.38;1.50;;;;;;;4.53;48.19;100226.50;5080490;28;20032;-77
2023/01/21 08:06:47;;;;;;;2.60;1.20;;;;;;;4.57;44.10;100232.22;5075333;28;20036;-77
2023/01/21 08:09:15;;;;;;;1.02;0.93;;;;;;;4.84;39.17;100232.34;5087534;28;20044;-79
2023/01/21 08:11:43;;;;;;;1.77;1.20;;;;;;;5.09;42.77;100236.47;5077851;28;20048;-77
2023/01/21 08:14:11;;;;;;;5.22;3.10;;;;;;;5.11;45.40;100237.06;5093997;28;20044;-78
2023/01/21 08:16:38;;;;;;;75.38;21.63;;;;;;;5.18;45.10;100241.47;5095064;28;20051;-77
2023/01/21 08:19:06;;;;;;;55.15;16.98;;;;;;;4.90;46.66;100235.13;5095647;28;20048;-78
2023/01/21 08:21:34;;;;;;;19.70;7.70;;;;;;;4.89;43.91;100241.63;5090484;28;20501;-77
2023/01/21 08:24:02;;;;;;;24.27;6.85;;;;;;;4.88;47.21;100240.00;5094456;28;20044;-78
2023/01/21 08:26:30;;;;;;;10.80;2.80;;;;;;;4.89;44.68;100238.91;5092298;28;20059;-78
2023/01/21 08:28:58;;;;;;;3.80;2.10;;;;;;;4.70;43.66;100236.50;5088043;28;20044;-78
2023/01/21 08:31:26;;;;;;;1.83;1.70;;;;;;;4.79;44.90;100232.28;5079326;28;20044;-77
2023/01/21 08:33:54;;;;;;;4.50;3.22;;;;;;;4.83;45.76;100236.13;5075115;28;20486;-77
2023/01/21 08:36:21;;;;;;;9.05;3.88;;;;;;;4.78;46.63;100232.50;5089899;28;20067;-78
2023/01/21 08:39:04;;;;;;;8.18;3.92;;;;;;;4.70;50.13;100241.91;5094642;28;20078;-77
2023/01/21 08:41:33;;;;;;;2.75;2.30;;;;;;;4.58;46.76;100247.41;5091845;28;20090;-77
2023/01/21 08:44:02;;;;;;;7.45;3.78;;;;;;;4.58;48.96;100239.28;5084695;28;20045;-75
2023/01/21 08:46:30;;;;;;;4.97;3.60;;;;;;;4.84;51.48;100243.19;5091342;28;20039;-76
2023/01/21 08:48:58;;;;;;;7.57;3.28;;;;;;;5.21;50.36;100251.78;5092897;28;20394;-77
2023/01/21 08:51:26;;;;;;;5.35;3.13;;;;;;;5.34;48.61;100247.91;5094241;28;20052;-81
2023/01/21 08:53:54;;;;;;;2.97;2.05;;;;;;;5.69;47.57;100257.53;5093284;28;20044;-80
2023/01/21 08:56:25;;;;;;;7.10;2.00;;;;;;;5.96;48.92;100253.97;5091985;28;20500;-79
2023/01/21 08:58:57;;;;;;;1.58;1.45;;;;;;;6.10;42.91;100254.41;5090333;28;20040;-78
2023/01/21 09:01:28;;;;;;;2.10;1.75;;;;;;;6.22;49.89;100261.59;5105127;27;20036;-81
2023/01/21 09:03:59;;;;;;;5.05;2.13;;;;;;;6.09;49.36;100260.09;5093969;28;20044;-79
2023/01/21 09:06:29;;;;;;;4.43;2.00;;;;;;;6.03;51.57;100257.31;5092750;28;20438;-79
2023/01/21 09:08:57;;;;;;;3.10;2.15;;;;;;;5.97;51.36;100257.53;5092600;28;20051;-80
2023/01/21 09:11:28;;;;;;;3.92;1.58;;;;;;;6.02;42.44;100265.72;5092992;28;20394;-79
2023/01/21 09:14:02;;;;;;;2.42;1.60;;;;;;;6.12;44.86;100271.25;5093299;28;20071;-80
2023/01/21 09:16:35;;;;;;;3.67;1.00;;;;;;;6.01;42.29;100261.38;5091889;28;20044;-78
2023/01/21 09:19:04;;;;;;;1.92;1.23;;;;;;;6.21;41.78;100268.09;5076289;28;20052;-78
2023/01/21 09:21:36;;;;;;;1.95;1.73;;;;;;;6.35;39.28;100268.50;5059811;28;20047;-79
2023/01/21 09:24:05;;;;;;;4.32;1.63;;;;;;;6.43;41.55;100265.28;5063451;28;20151;-78
2023/01/21 09:26:32;;;;;;;2.25;1.40;;;;;;;6.58;40.72;100278.19;5058793;28;20047;-80
2023/01/21 09:29:01;;;;;;;2.60;1.50;;;;;;;6.94;38.75;100277.63;5074369;28;20044;-80
2023/01/21 09:31:32;;;;;;;1.27;1.17;;;;;;;7.36;41.44;100267.75;5055707;28;20398;-79
2023/01/21 09:34:02;;;;;;;1.52;1.30;;;;;;;7.57;38.65;100271.34;5071028;28;20048;-80
2023/01/21 09:36:37;;;;;;;4.32;1.77;;;;;;;7.75;40.04;100274.69;5070591;28;20045;-80
2023/01/21 09:39:06;;;;;;;3.38;2.10;;;;;;;7.91;43.09;100275.53;5072274;28;20407;-81
2023/01/21 09:41:38;;;;;;;3.47;1.83;;;;;;;7.78;40.50;100276.88;5071011;28;20045;-81
2023/01/21 09:44:15;;;;;;;3.63;1.85;;;;;;;8.07;38.63;100277.19;5092087;28;20047;-82
2023/01/21 09:47:02;;;;;;;3.28;2.15;;;;;;;8.34;36.79;100270.69;5085776;28;20044;-81
2023/01/21 09:49:46;;;;;;;3.05;2.40;;;;;;;8.56;40.62;100269.59;5083442;28;20040;-82
2023/01/21 09:52:54;;;;;;;2.50;1.70;;;;;;;8.94;41.06;100273.94;5093322;28;20048;-82
2023/01/21 09:55:31;;;;;;;2.53;2.03;;;;;;;8.79;38.89;100274.78;5049772;28;20044;-83
2023/01/21 09:58:30;;;;;;;4.97;2.30;;;;;;;8.36;37.30;100259.47;5085997;28;20063;-83
2023/01/21 10:01:24;;;;;;;2.83;2.00;;;;;;;8.84;36.31;100261.94;5084570;28;20056;-84
2023/01/21 10:03:55;;;;;;;3.13;1.90;;;;;;;8.83;37.23;100251.28;5071843;28;20052;-83
2023/01/21 10:06:37;;;;;;;4.70;1.80;;;;;;;9.04;35.46;100252.03;5072877;28;20303;-84
2023/01/21 10:09:10;;;;;;;4.35;2.83;;;;;;;9.10;42.01;100255.59;5078593;28;20048;-84
2023/01/21 10:12:04;;;;;;;4.50;2.63;;;;;;;9.16;37.71;100238.09;5089349;28;20055;-83
2023/01/21 10:14:44;;;;;;;2.67;2.10;;;;;;;9.17;42.66;100249.81;5082533;28;20051;-83
2023/01/21 10:17:32;;;;;;;5.80;2.78;;;;;;;9.20;39.59;100244.66;5100313;28;20067;-84
2023/01/21 10:20:23;;;;;;;6.47;3.60;;;;;;;9.32;38.48;100236.13;5090752;28;20063;-85
2023/01/21 10:23:30;;;;;;;5.43;2.60;;;;;;;9.27;37.76;100247.06;5092644;28;20048;-83
2023/01/21 10:26:04;;;;;;;3.33;2.67;;;;;;;9.26;36.69;100226.31;5092223;28;20052;-83
2023/01/21 10:28:33;;;;;;;5.72;2.55;;;;;;;9.09;42.27;100221.22;5071065;28;20053;-85
2023/01/21 10:31:17;;;;;;;5.18;2.95;;;;;;;9.51;39.95;100217.19;5071160;28;20048;-85
2023/01/21 10:33:45;;;;;;;5.18;2.58;;;;;;;9.49;40.31;100224.84;5072640;28;20053;-84
2023/01/21 10:36:33;;;;;;;3.15;2.58;;;;;;;9.65;40.35;100220.13;5085453;28;20040;-84
2023/01/21 10:39:32;;;;;;;6.70;2.72;;;;;;;9.65;38.32;100216.56;5084901;28;20362;-85
2023/01/21 10:42:20;;;;;;;4.10;2.78;;;;;;;9.49;39.18;100210.38;5091593;28;20055;-85
2023/01/21 10:45:07;;;;;;;5.43;3.63;;;;;;;9.37;39.14;100210.69;5092764;28;20056;-85
2023/01/21 10:48:02;;;;;;;3.95;2.38;;;;;;;9.42;34.76;100207.94;5092392;28;20059;-84
2023/01/21 10:50:39;;;;;;;1.35;0.80;;;;;;;9.70;30.82;100202.88;5091117;28;20442;-83
2023/01/21 10:53:23;;;;;;;0.73;0.50;;;;;;;9.99;30.15;100196.66;5092519;28;20048;-83
2023/01/21 10:56:33;;;;;;;0.57;0.40;;;;;;;10.07;29.08;100176.91;5083215;28;20048;-82
2023/01/21 10:59:09;;;;;;;0.63;0.60;;;;;;;10.09;31.54;100171.16;5059567;28;20063;-82
2023/01/21 11:01:44;;;;;;;1.00;0.85;;;;;;;10.37;30.87;100182.38;5085194;28;20039;-83
2023/01/21 11:04:21;;;;;;;2.85;1.50;;;;;;;10.44;28.65;100168.38;5090456;28;20055;-83
2023/01/21 11:07:01;;;;;;;1.45;0.70;;;;;;;10.70;27.25;100165.41;5091619;28;20051;-84
2023/01/21 11:09:42;;;;;;;1.13;0.57;;;;;;;10.55;28.97;100160.91;5088064;28;20044;-83
2023/01/21 11:12:15;;;;;;;0.93;0.45;;;;;;;10.80;27.79;100159.00;5066979;28;20514;-82
2023/01/21 11:14:49;;;;;;;2.38;0.90;;;;;;;10.75;28.53;100157.94;5080024;28;20044;-82
2023/01/21 12:31:28;;;;;;;0.85;0.40;;;;;;;11.51;24.52;100073.38;4940738;29;20047;-81
2023/01/21 12:34:07;;;;;;;0.88;0.70;;;;;;;11.49;25.53;100062.72;4932913;29;20051;-80
2023/01/21 12:36:51;;;;;;;0.38;0.30;;;;;;;11.75;25.04;100075.19;4927473;29;20048;-79
2023/01/21 12:39:32;;;;;;;1.40;0.30;;;;;;;11.83;25.33;100055.28;4948987;28;20684;-78
2023/01/21 12:42:36;;;;;;;0.73;0.55;;;;;;;11.73;26.34;100053.53;4903917;29;20074;-80
2023/01/21 12:45:15;;;;;;;1.45;0.95;;;;;;;11.59;29.16;100049.97;4904502;29;20058;-81
2023/01/21 12:47:51;;;;;;;0.65;0.60;;;;;;;11.43;29.01;100063.91;4932922;29;20510;-80
2023/01/21 12:50:38;;;;;;;3.92;3.03;;;;;;;10.87;36.92;100058.97;4927094;29;20051;-79
2023/01/21 12:53:35;;;;;;;3.92;2.42;;;;;;;10.64;40.68;100071.59;4921341;29;20051;-78
2023/01/21 12:56:33;;;;;;;4.63;3.20;;;;;;;10.51;43.63;100055.88;4919530;29;20720;-76
2023/01/21 12:59:13;;;;;;;6.90;3.65;;;;;;;10.28;44.48;100059.13;4921604;29;20482;-77
2023/01/21 13:01:55;;;;;;;7.40;4.07;;;;;;;10.20;46.76;100057.00;4919692;29;20524;-76
2023/01/21 13:04:53;;;;;;;8.70;4.15;;;;;;;10.16;46.67;100054.03;4932949;29;20047;-75
2023/01/21 13:08:00;;;;;;;7.25;3.92;;;;;;;9.63;48.86;100052.91;4952145;29;20043;-77
2023/01/21 13:10:34;;;;;;;7.20;4.10;;;;;;;9.27;49.86;100056.75;4952714;29;20439;-78
2023/01/21 13:13:16;;;;;;;5.93;3.88;;;;;;;8.95;51.62;100057.22;4951686;29;20053;-77
2023/01/21 13:15:48;;;;;;;6.97;4.00;;;;;;;9.28;50.04;100060.28;4954594;29;20631;-78
2023/01/21 13:18:24;;;;;;;7.90;4.57;;;;;;;9.25;51.83;100061.66;4952607;29;20047;-80